createdAt,value
2023-02-05T00:01:41.780Z,100.00
2023-02-05T00:04:09.265Z,99.07
2023-02-05T00:06:36.787Z,100.00
2023-02-05T00:09:04.257Z,100.00
2023-02-05T00:11:33.071Z,99.67
2023-02-05T00:14:00.566Z,100.00
2023-02-05T00:16:28.168Z,99.58
2023-02-05T00:18:55.783Z,98.90
2023-02-05T00:21:24.574Z,99.77
2023-02-05T00:23:52.063Z,99.61
2023-02-05T00:26:19.591Z,98.96
2023-02-05T00:28:48.447Z,99.58
2023-02-05T00:31:19.684Z,100.00
2023-02-05T00:33:48.347Z,100.00
2023-02-05T00:36:17.041Z,100.00
2023-02-05T00:38:46.039Z,100.00
2023-02-05T00:41:14.779Z,99.72
2023-02-05T00:43:43.037Z,100.00
2023-02-05T00:46:13.448Z,99.74
2023-02-05T00:48:42.707Z,100.00
2023-02-05T00:51:10.623Z,100.00
2023-02-05T00:53:38.889Z,98.97
2023-02-05T00:56:06.899Z,97.39
2023-02-05T00:58:34.585Z,98.08
2023-02-05T01:01:02.083Z,97.94
2023-02-05T01:03:31.047Z,97.63
2023-02-05T01:05:59.427Z,97.32
2023-02-05T01:08:26.876Z,98.77
2023-02-05T01:10:54.345Z,98.53
2023-02-05T01:13:21.824Z,100.00
2023-02-05T01:15:49.304Z,100.00
2023-02-05T01:18:17.038Z,100.00
2023-02-05T01:20:45.906Z,99.61
2023-02-05T01:23:13.389Z,99.05
2023-02-05T01:25:40.979Z,98.92
2023-02-05T01:28:08.525Z,97.40
2023-02-05T01:30:36.443Z,97.44
2023-02-05T01:33:04.421Z,99.77
2023-02-05T01:35:32.532Z,100.00
2023-02-05T01:38:01.661Z,100.00
2023-02-05T01:40:29.125Z,97.45
2023-02-05T01:42:56.608Z,99.73
2023-02-05T01:45:56.210Z,100.00
2023-02-05T01:48:28.023Z,99.28
2023-02-05T01:51:00.390Z,97.02
2023-02-05T01:53:32.595Z,95.77
2023-02-05T01:56:02.453Z,98.48
2023-02-05T01:58:34.732Z,99.49
2023-02-05T02:01:02.201Z,98.26
2023-02-05T02:03:32.132Z,98.01
2023-02-05T02:06:00.259Z,96.55
2023-02-05T02:08:29.601Z,96.93
2023-02-05T02:10:59.128Z,99.10
2023-02-05T02:13:28.917Z,98.96
2023-02-05T02:15:57.842Z,98.36
2023-02-05T02:18:28.975Z,97.92
2023-02-05T02:21:28.348Z,99.30
2023-02-05T02:24:50.034Z,97.54
2023-02-05T02:27:41.581Z,99.51
2023-02-05T02:30:15.637Z,99.08
2023-02-05T02:32:51.661Z,99.00
2023-02-05T02:35:26.596Z,98.30
2023-02-05T02:38:00.924Z,98.78
2023-02-05T02:40:36.747Z,98.83
2023-02-05T02:43:10.193Z,96.52
2023-02-05T02:45:49.968Z,96.43
2023-02-05T02:48:22.747Z,98.06
2023-02-05T02:50:53.786Z,97.98
2023-02-05T02:53:25.054Z,97.51
2023-02-05T02:55:54.796Z,95.64
2023-02-05T02:58:26.439Z,95.94
2023-02-05T03:00:55.078Z,94.12
2023-02-05T03:03:27.395Z,93.79
2023-02-05T03:05:58.254Z,94.14
2023-02-05T03:08:31.257Z,97.32
2023-02-05T03:11:04.238Z,98.30
2023-02-05T03:13:33.234Z,98.02
2023-02-05T03:16:01.432Z,95.69
2023-02-05T03:18:30.443Z,95.04
2023-02-05T03:21:01.254Z,95.09
2023-02-05T03:23:29.646Z,95.74
2023-02-05T03:25:57.238Z,96.42
2023-02-05T03:28:24.962Z,96.51
2023-02-05T03:31:05.166Z,98.63
2023-02-05T03:33:47.994Z,98.48
2023-02-05T03:36:21.645Z,97.06
2023-02-05T03:39:03.545Z,97.05
2023-02-05T03:41:54.951Z,96.28
2023-02-05T03:44:49.532Z,99.19
2023-02-05T03:47:33.635Z,98.30
2023-02-05T03:50:11.914Z,97.29
2023-02-05T03:52:44.928Z,96.89
2023-02-05T03:55:18.283Z,97.20
2023-02-05T03:57:53.644Z,95.82
2023-02-05T04:00:21.557Z,100.00
2023-02-05T04:02:50.356Z,100.00
2023-02-05T04:05:20.943Z,100.00
2023-02-05T04:07:48.473Z,97.71
2023-02-05T04:10:16.524Z,97.75
2023-02-05T04:12:43.979Z,97.48
2023-02-05T04:15:11.796Z,96.56
2023-02-05T04:17:39.310Z,96.98
2023-02-05T04:20:09.520Z,97.22
2023-02-05T04:22:37.013Z,96.83
2023-02-05T04:25:04.794Z,96.13
2023-02-05T04:27:32.281Z,96.18
2023-02-05T04:29:59.763Z,95.73
2023-02-05T04:32:27.317Z,94.99
2023-02-05T04:34:54.772Z,95.10
2023-02-05T04:37:24.946Z,95.29
2023-02-05T04:39:52.489Z,94.89
2023-02-05T04:42:20.113Z,95.78
2023-02-05T04:44:47.588Z,96.07
2023-02-05T04:47:15.076Z,97.17
2023-02-05T04:49:42.552Z,96.95
2023-02-05T04:52:10.028Z,96.77
2023-02-05T04:54:39.307Z,95.81
2023-02-05T04:57:06.763Z,95.04
2023-02-05T04:59:34.256Z,95.72
2023-02-05T05:02:01.775Z,96.32
2023-02-05T05:04:29.250Z,95.70
2023-02-05T05:06:56.711Z,96.88
2023-02-05T05:09:25.276Z,97.34
2023-02-05T05:11:54.770Z,96.80
2023-02-05T05:14:22.202Z,97.78
2023-02-05T05:16:50.239Z,100.00
2023-02-05T05:19:17.800Z,99.02
2023-02-05T05:21:45.306Z,97.95
2023-02-05T05:24:12.811Z,97.24
2023-02-05T05:26:43.742Z,95.74
2023-02-05T05:29:13.654Z,95.53
2023-02-05T05:31:41.509Z,95.28
2023-02-05T05:34:09.017Z,95.69
2023-02-05T05:36:36.505Z,95.78
2023-02-05T05:39:18.090Z,95.50
2023-02-05T05:42:03.371Z,95.38
2023-02-05T05:44:32.182Z,95.17
2023-02-05T05:46:59.682Z,94.91
2023-02-05T05:49:27.223Z,95.16
2023-02-05T05:51:54.829Z,93.50
2023-02-05T05:54:22.306Z,94.34
2023-02-05T05:56:50.212Z,94.37
2023-02-05T05:59:17.828Z,94.99
2023-02-05T06:01:46.686Z,94.48
2023-02-05T06:04:14.165Z,94.79
2023-02-05T06:06:42.438Z,95.90
2023-02-05T06:09:09.987Z,95.77
2023-02-05T06:11:37.469Z,96.09
2023-02-05T06:14:05.306Z,95.81
2023-02-05T06:16:32.812Z,95.89
2023-02-05T06:19:01.698Z,95.42
2023-02-05T06:21:29.157Z,96.04
2023-02-05T06:23:56.626Z,94.74
2023-02-05T06:26:24.145Z,95.11
2023-02-05T06:28:51.642Z,95.72
2023-02-05T06:31:19.209Z,95.39
2023-02-05T06:33:46.726Z,94.73
2023-02-05T06:36:15.518Z,95.11
2023-02-05T06:38:42.977Z,95.08
2023-02-05T06:41:10.434Z,95.08
2023-02-05T06:43:37.912Z,95.28
2023-02-05T06:46:05.702Z,95.26
2023-02-05T06:48:33.190Z,96.06
2023-02-05T06:51:00.644Z,96.85
2023-02-05T06:53:29.479Z,96.75
2023-02-05T06:55:59.228Z,97.55
2023-02-05T06:58:26.762Z,98.09
2023-02-05T07:00:54.219Z,96.40
2023-02-05T07:03:21.714Z,97.78
2023-02-05T07:05:49.193Z,97.38
2023-02-05T07:08:17.032Z,97.30
2023-02-05T07:10:45.830Z,97.61
2023-02-05T07:13:13.364Z,97.02
2023-02-05T07:15:40.831Z,97.78
2023-02-05T07:18:08.288Z,97.37
2023-02-05T07:20:35.846Z,97.23
2023-02-05T07:23:03.301Z,97.56
2023-02-05T07:25:36.268Z,97.91
2023-02-05T07:28:05.930Z,100.00
2023-02-05T07:30:33.698Z,100.00
2023-02-05T07:33:03.398Z,100.00
2023-02-05T07:35:31.090Z,100.00
2023-02-05T07:37:58.595Z,100.00
2023-02-05T07:40:26.125Z,100.00
2023-02-05T07:42:53.582Z,100.00
2023-02-05T07:45:22.371Z,100.00
2023-02-05T07:47:50.772Z,100.00
2023-02-05T07:50:18.712Z,100.00
2023-02-05T07:52:46.184Z,100.00
2023-02-05T07:55:13.616Z,100.00
2023-02-05T07:57:41.602Z,100.00
2023-02-05T08:00:10.637Z,100.00
2023-02-05T08:02:39.646Z,100.00
2023-02-05T08:05:08.186Z,100.00
2023-02-05T08:07:37.285Z,100.00
2023-02-05T08:10:05.696Z,99.44
2023-02-05T08:12:33.208Z,98.83
2023-02-05T08:15:00.669Z,100.00
2023-02-05T08:17:28.167Z,100.00
2023-02-05T08:19:56.947Z,100.00
2023-02-05T08:22:24.454Z,100.00
2023-02-05T08:24:51.976Z,100.00
2023-02-05T08:27:19.473Z,100.00
2023-02-05T08:29:48.208Z,100.00
2023-02-05T08:32:15.742Z,100.00
2023-02-05T08:34:43.217Z,100.00
2023-02-05T08:37:12.285Z,92.20
2023-02-05T08:39:39.762Z,84.45
2023-02-05T08:42:07.276Z,74.38
2023-02-05T08:44:34.738Z,81.48
2023-02-05T08:47:02.190Z,81.69
2023-02-05T08:49:29.671Z,77.88
2023-02-05T08:51:58.110Z,65.33
2023-02-05T08:54:27.038Z,68.13
2023-02-05T08:56:54.513Z,65.04
2023-02-05T08:59:22.391Z,64.36
2023-02-05T09:01:50.120Z,64.17
2023-02-05T09:04:19.784Z,63.46
2023-02-05T09:06:48.020Z,65.42
2023-02-05T09:09:15.900Z,64.02
2023-02-05T09:11:46.636Z,66.26
2023-02-05T09:14:14.790Z,59.57
2023-02-05T09:16:42.964Z,58.32
2023-02-05T09:19:10.669Z,59.83
2023-02-05T09:21:38.104Z,60.63
2023-02-05T09:24:05.971Z,62.23
2023-02-05T09:26:33.679Z,59.73
2023-02-05T09:29:03.694Z,57.58
2023-02-05T09:31:31.377Z,59.50
2023-02-05T09:33:58.963Z,62.46
2023-02-05T09:36:26.655Z,66.88
2023-02-05T09:39:11.921Z,67.51
2023-02-05T09:41:48.948Z,68.31
2023-02-05T09:44:26.544Z,68.41
2023-02-05T09:47:02.527Z,66.08
2023-02-05T09:49:35.714Z,66.07
2023-02-05T09:52:05.986Z,66.44
2023-02-05T09:54:37.529Z,62.83
2023-02-05T09:57:09.014Z,63.34
2023-02-05T09:59:38.505Z,64.56
2023-02-05T10:02:25.924Z,60.55
2023-02-05T10:04:54.781Z,62.33
2023-02-05T10:07:38.243Z,58.77
2023-02-05T10:10:22.407Z,56.91
2023-02-05T10:13:16.886Z,56.97
2023-02-05T10:16:02.784Z,56.79
2023-02-05T10:18:44.417Z,57.13
2023-02-05T10:21:28.601Z,56.27
2023-02-05T10:24:15.481Z,56.30
2023-02-05T10:26:49.390Z,57.43
2023-02-05T10:29:28.366Z,58.40
2023-02-05T10:32:08.754Z,58.73
2023-02-05T10:34:49.906Z,58.92
2023-02-05T10:37:19.801Z,60.99
2023-02-05T10:39:49.048Z,62.57
2023-02-05T10:42:27.332Z,61.87
2023-02-05T10:45:04.454Z,61.06
2023-02-05T10:47:49.391Z,61.63
2023-02-05T10:50:23.995Z,63.36
2023-02-05T10:52:51.938Z,62.67
2023-02-05T10:55:19.714Z,61.37
2023-02-05T10:57:47.273Z,61.00
2023-02-05T11:00:17.804Z,60.67
2023-02-05T11:02:50.415Z,61.44
2023-02-05T11:05:24.045Z,62.53
2023-02-05T11:07:55.240Z,63.24
2023-02-05T11:10:24.772Z,61.24
2023-02-05T11:12:55.819Z,59.84
2023-02-05T11:15:26.105Z,56.85
2023-02-05T11:18:00.042Z,57.41
2023-02-05T11:20:30.691Z,58.59
2023-02-05T11:23:10.529Z,57.80
2023-02-05T11:25:38.047Z,57.86
2023-02-05T11:28:06.065Z,57.93
2023-02-05T11:30:50.748Z,57.60
2023-02-05T11:33:32.295Z,57.17
2023-02-05T11:36:03.076Z,56.51
2023-02-05T11:38:39.965Z,57.73
2023-02-05T11:41:09.162Z,57.15
2023-02-05T11:43:39.250Z,55.43
2023-02-05T11:46:10.080Z,55.74
2023-02-05T11:48:44.246Z,55.24
2023-02-05T11:51:15.200Z,55.38
2023-02-05T11:53:51.545Z,55.80
2023-02-05T11:56:24.955Z,55.35
2023-02-05T11:59:00.903Z,54.83
2023-02-05T12:01:32.355Z,55.16
2023-02-05T12:04:02.927Z,55.29
2023-02-05T12:06:36.977Z,55.31
2023-02-05T12:09:05.000Z,54.73
2023-02-05T12:12:03.948Z,54.12
2023-02-05T12:14:41.213Z,55.30
2023-02-05T12:17:26.043Z,55.68
2023-02-05T12:20:05.243Z,56.12
2023-02-05T12:22:56.487Z,55.12
2023-02-05T12:25:29.808Z,55.64
2023-02-05T12:28:18.541Z,54.70
2023-02-05T12:30:57.972Z,55.12
2023-02-05T12:33:43.951Z,56.02
2023-02-05T12:36:30.105Z,56.66
2023-02-05T12:39:13.482Z,57.58
2023-02-05T12:41:50.053Z,57.35
2023-02-05T12:44:34.609Z,57.65
2023-02-05T12:47:14.724Z,57.35
2023-02-05T12:50:07.821Z,57.53
2023-02-05T12:52:54.443Z,60.44
2023-02-05T12:55:33.128Z,60.44
2023-02-05T12:58:04.070Z,58.99
2023-02-05T13:00:37.286Z,59.29
2023-02-05T13:03:09.764Z,58.80
2023-02-05T13:05:41.852Z,58.19
2023-02-05T13:08:20.080Z,57.36
2023-02-05T13:10:54.468Z,56.59
2023-02-05T13:13:31.298Z,56.08
2023-02-05T13:16:03.937Z,57.80
2023-02-05T13:18:36.511Z,58.62
2023-02-05T13:21:25.734Z,60.14
2023-02-05T13:24:36.146Z,62.09
2023-02-05T13:27:23.757Z,65.34
2023-02-05T13:29:53.846Z,66.68
2023-02-05T13:32:25.169Z,66.34
2023-02-05T13:34:54.688Z,66.29
2023-02-05T13:37:42.638Z,67.45
2023-02-05T13:40:43.701Z,66.31
2023-02-05T13:43:39.369Z,67.24
2023-02-05T13:46:37.306Z,67.00
2023-02-05T13:49:52.092Z,66.44
2023-02-05T13:52:58.180Z,68.20
2023-02-05T13:56:04.701Z,68.34
2023-02-05T13:58:35.003Z,67.99
2023-02-05T14:01:06.502Z,67.83
2023-02-05T14:03:38.138Z,67.17
2023-02-05T14:06:23.843Z,67.64
2023-02-05T14:08:57.658Z,69.98
2023-02-05T14:11:26.787Z,68.07
2023-02-05T14:14:25.960Z,66.82
2023-02-05T14:16:54.900Z,66.88
2023-02-05T14:19:25.628Z,67.11
2023-02-05T14:22:13.602Z,69.00
2023-02-05T14:24:47.372Z,69.17
2023-02-05T14:27:48.797Z,67.90
2023-02-05T14:30:38.583Z,65.75
2023-02-05T14:33:27.982Z,68.77
2023-02-05T14:35:57.406Z,69.90
2023-02-05T14:38:28.883Z,72.54
2023-02-05T14:41:06.242Z,74.47
2023-02-05T14:43:37.275Z,73.52
2023-02-05T14:46:08.230Z,72.38
2023-02-05T14:48:42.733Z,72.74
2023-02-05T14:51:29.136Z,76.03
2023-02-05T14:53:59.601Z,76.08
2023-02-05T14:56:33.959Z,75.28
2023-02-05T14:59:07.224Z,75.99
2023-02-05T15:01:46.591Z,75.28
2023-02-05T15:04:39.088Z,74.75
2023-02-05T15:07:13.767Z,73.79
2023-02-05T15:09:45.444Z,71.83
2023-02-05T15:12:32.216Z,73.54
2023-02-05T15:15:16.991Z,73.77
2023-02-05T15:17:52.704Z,75.94
2023-02-05T15:20:33.743Z,76.81
2023-02-05T15:23:21.965Z,75.99
2023-02-05T15:25:56.826Z,76.49
2023-02-05T15:28:33.075Z,75.54
2023-02-05T15:31:17.961Z,74.70
2023-02-05T15:33:53.325Z,77.42
2023-02-05T15:36:27.815Z,75.70
2023-02-05T15:39:06.753Z,74.33
2023-02-05T15:41:45.170Z,74.07
2023-02-05T15:44:22.826Z,72.89
2023-02-05T15:46:52.496Z,72.72
2023-02-05T15:49:26.410Z,70.90
2023-02-05T15:51:53.919Z,73.16
2023-02-05T15:54:21.936Z,74.96
2023-02-05T15:56:52.326Z,73.98
2023-02-05T15:59:24.169Z,73.98
2023-02-05T16:02:01.760Z,74.58
2023-02-05T16:04:31.663Z,73.25
2023-02-05T16:06:59.994Z,74.06
2023-02-05T16:09:29.109Z,72.39
2023-02-05T16:11:57.039Z,71.70
2023-02-05T16:14:26.334Z,71.66
2023-02-05T16:17:04.109Z,71.71
2023-02-05T16:19:36.929Z,72.37
2023-02-05T16:22:18.532Z,72.38
2023-02-05T16:24:49.571Z,72.44
2023-02-05T16:27:21.192Z,72.98
2023-02-05T16:29:53.179Z,73.25
2023-02-05T16:32:29.104Z,73.64
2023-02-05T16:34:56.894Z,73.40
2023-02-05T16:37:31.222Z,73.45
2023-02-05T16:40:01.447Z,72.99
2023-02-05T16:42:34.086Z,73.85
2023-02-05T16:45:18.520Z,74.12
2023-02-05T16:48:23.207Z,74.59
2023-02-05T16:50:52.081Z,74.13
2023-02-05T16:53:24.041Z,74.30
2023-02-05T16:55:58.142Z,74.62
2023-02-05T16:58:28.940Z,75.66
2023-02-05T17:00:59.016Z,76.73
2023-02-05T17:03:34.302Z,80.76
2023-02-05T17:06:04.051Z,84.13
2023-02-05T17:08:34.272Z,83.48
2023-02-05T17:11:04.477Z,84.03
2023-02-05T17:13:40.555Z,82.94
2023-02-05T17:16:35.289Z,82.68
2023-02-05T17:19:06.324Z,82.38
2023-02-05T17:21:34.949Z,83.87
2023-02-05T17:24:05.914Z,83.61
2023-02-05T17:26:36.126Z,84.57
2023-02-05T17:29:07.536Z,85.05
2023-02-05T17:31:38.255Z,84.73
2023-02-05T17:34:07.566Z,84.71
2023-02-05T17:36:35.081Z,84.07
2023-02-05T17:39:02.580Z,85.06
2023-02-05T17:41:53.900Z,86.15
2023-02-05T17:44:21.360Z,87.00
2023-02-05T17:46:48.821Z,88.24
2023-02-05T17:49:17.601Z,89.60
2023-02-05T17:51:45.031Z,89.54
2023-02-05T17:54:14.477Z,94.27
2023-02-05T17:56:44.274Z,93.15
2023-02-05T17:59:12.784Z,95.16
2023-02-05T18:01:40.238Z,99.52
2023-02-05T18:04:08.860Z,100.00
2023-02-05T18:06:38.413Z,100.00
2023-02-05T18:09:06.628Z,100.00
2023-02-05T18:11:34.433Z,99.44
2023-02-05T18:14:02.113Z,99.79
2023-02-05T18:16:29.689Z,100.00
2023-02-05T18:18:57.216Z,100.00
2023-02-05T18:21:24.980Z,100.00
2023-02-05T18:23:53.818Z,100.00
2023-02-05T18:26:21.822Z,100.00
2023-02-05T18:28:49.882Z,100.00
2023-02-05T18:31:17.565Z,100.00
2023-02-05T18:33:45.140Z,100.00
2023-02-05T18:36:14.663Z,100.00
2023-02-05T18:38:43.879Z,100.00
2023-02-05T18:41:14.601Z,100.00
2023-02-05T18:43:42.785Z,100.00
2023-02-05T18:46:12.552Z,100.00
2023-02-05T18:48:40.963Z,100.00
2023-02-05T18:51:10.380Z,100.00
2023-02-05T18:53:39.334Z,100.00
2023-02-05T18:56:09.469Z,100.00
2023-02-05T18:58:38.307Z,100.00
2023-02-05T19:01:10.157Z,100.00
2023-02-05T19:03:38.811Z,100.00
2023-02-05T19:06:06.757Z,100.00
2023-02-05T19:08:34.270Z,100.00
2023-02-05T19:11:06.800Z,99.11
2023-02-05T19:13:36.294Z,99.13
2023-02-05T19:16:07.387Z,100.00
2023-02-05T19:18:34.961Z,100.00
2023-02-05T19:21:06.585Z,100.00
2023-02-05T19:23:34.521Z,100.00
2023-02-05T19:26:04.081Z,100.00
2023-02-05T19:28:32.687Z,100.00
2023-02-05T19:31:03.495Z,100.00
2023-02-05T19:33:32.874Z,100.00
2023-02-05T19:36:01.004Z,100.00
2023-02-05T19:38:29.003Z,100.00
2023-02-05T19:40:56.483Z,100.00
2023-02-05T19:43:24.035Z,100.00
2023-02-05T19:45:51.524Z,100.00
2023-02-05T19:48:19.025Z,100.00
2023-02-05T19:50:47.837Z,100.00
2023-02-05T19:53:16.697Z,100.00
2023-02-05T19:55:44.176Z,100.00
2023-02-05T19:58:12.615Z,100.00
2023-02-05T20:00:40.132Z,100.00
2023-02-05T20:03:07.608Z,100.00
2023-02-05T20:05:37.184Z,100.00
2023-02-05T20:08:06.101Z,100.00
2023-02-05T20:10:33.853Z,100.00
2023-02-05T20:13:01.478Z,100.00
2023-02-05T20:15:28.942Z,100.00
2023-02-05T20:17:58.446Z,100.00
2023-02-05T20:20:33.509Z,100.00
2023-02-05T20:23:01.400Z,100.00
2023-02-05T20:25:30.239Z,99.89
2023-02-05T20:27:57.802Z,99.18
2023-02-05T20:30:43.138Z,98.69
2023-02-05T20:33:10.730Z,98.58
2023-02-05T20:35:39.082Z,99.73
2023-02-05T20:38:06.949Z,99.30
2023-02-05T20:40:35.988Z,98.55
2023-02-05T20:43:04.658Z,100.00
2023-02-05T20:45:33.740Z,100.00
2023-02-05T20:48:01.351Z,100.00
2023-02-05T20:50:28.827Z,98.58
2023-02-05T20:52:56.380Z,100.00
2023-02-05T20:55:23.856Z,100.00
2023-02-05T20:57:52.665Z,100.00
2023-02-05T21:00:22.304Z,99.88
2023-02-05T21:02:49.770Z,100.00
2023-02-05T21:05:17.270Z,100.00
2023-02-05T21:07:44.809Z,100.00
2023-02-05T21:10:12.281Z,100.00
2023-02-05T21:12:39.746Z,100.00
2023-02-05T21:15:09.425Z,100.00
2023-02-05T21:17:37.319Z,100.00
2023-02-05T21:20:05.160Z,100.00
2023-02-05T21:22:32.613Z,100.00
2023-02-05T21:25:00.101Z,100.00
2023-02-05T21:27:27.649Z,100.00
2023-02-05T21:29:55.101Z,100.00
2023-02-05T21:32:23.939Z,100.00
2023-02-05T21:34:52.131Z,100.00
2023-02-05T21:37:19.629Z,100.00
2023-02-05T21:39:48.046Z,100.00
2023-02-05T21:42:15.533Z,100.00
2023-02-05T21:44:44.127Z,97.86
2023-02-05T21:47:11.602Z,99.21
2023-02-05T21:49:40.386Z,97.99
2023-02-05T21:52:07.855Z,97.89
2023-02-05T21:54:35.302Z,98.65
2023-02-05T21:57:02.760Z,96.53
2023-02-05T21:59:30.209Z,95.30
2023-02-05T22:01:57.748Z,96.77
2023-02-05T22:04:25.269Z,96.70
2023-02-05T22:06:54.050Z,99.66
2023-02-05T22:09:21.690Z,100.00
2023-02-05T22:11:50.527Z,100.00
2023-02-05T22:14:18.141Z,100.00
2023-02-05T22:16:45.732Z,100.00
2023-02-05T22:19:13.233Z,99.09
2023-02-05T22:21:42.326Z,99.84
2023-02-05T22:24:15.022Z,99.67
2023-02-05T22:26:42.934Z,97.75
2023-02-05T22:29:13.386Z,97.79
2023-02-05T22:31:41.081Z,100.00
2023-02-05T22:34:08.612Z,100.00
2023-02-05T22:36:36.357Z,100.00
2023-02-05T22:39:05.485Z,100.00
2023-02-05T22:41:36.347Z,100.00
2023-02-05T22:44:05.407Z,100.00
2023-02-05T22:46:34.728Z,100.00
2023-02-05T22:49:03.377Z,100.00
2023-02-05T22:51:32.876Z,100.00
2023-02-05T22:54:00.625Z,100.00
2023-02-05T22:56:28.651Z,100.00
2023-02-05T22:58:57.902Z,98.64
2023-02-05T23:01:27.893Z,96.73
2023-02-05T23:03:56.288Z,100.00
2023-02-05T23:06:26.116Z,100.00
2023-02-05T23:08:58.915Z,100.00
2023-02-05T23:11:27.823Z,100.00
2023-02-05T23:13:57.426Z,100.00
2023-02-05T23:16:26.889Z,100.00
2023-02-05T23:18:58.046Z,99.08
2023-02-05T23:21:27.797Z,97.31
2023-02-05T23:23:55.374Z,97.08
2023-02-05T23:26:24.603Z,97.45
2023-02-05T23:28:53.004Z,100.00
2023-02-05T23:31:22.687Z,98.76
2023-02-05T23:33:50.857Z,97.04
2023-02-05T23:36:18.877Z,99.88
2023-02-05T23:38:46.420Z,99.94
2023-02-05T23:41:14.045Z,97.11
2023-02-05T23:43:41.746Z,96.40
2023-02-05T23:46:09.586Z,100.00
2023-02-05T23:48:38.578Z,100.00
2023-02-05T23:51:06.064Z,100.00
2023-02-05T23:53:33.529Z,99.83
2023-02-05T23:56:01.761Z,99.48
2023-02-05T23:58:29.233Z,98.78
